sensor_id;sensor_type;location;lat;lon;timestamp;temperature;humidity
29363;DHT22;16349;53.672;10.014;2023-05-29T00:01:27;12.10;99.90
29363;DHT22;16349;53.672;10.014;2023-05-29T00:03:54;12.20;99.90
29363;DHT22;16349;53.672;10.014;2023-05-29T00:06:21;12.10;99.90
29363;DHT22;16349;53.672;10.014;2023-05-29T00:08:48;12.10;99.90
29363;DHT22;16349;53.672;10.014;2023-05-29T00:11:15;12.10;99.90
29363;DHT22;16349;53.672;10.014;2023-05-29T00:13:43;12.10;99.90
29363;DHT22;16349;53.672;10.014;2023-05-29T00:16:09;12.10;99.90
29363;DHT22;16349;53.672;10.014;2023-05-29T00:18:38;12.00;99.90
29363;DHT22;16349;53.672;10.014;2023-05-29T00:21:11;11.90;99.90
29363;DHT22;16349;53.672;10.014;2023-05-29T00:23:38;11.90;99.90
29363;DHT22;16349;53.672;10.014;2023-05-29T00:26:05;11.80;99.90
29363;DHT22;16349;53.672;10.014;2023-05-29T00:28:35;11.70;99.90
29363;DHT22;16349;53.672;10.014;2023-05-29T00:31:02;11.60;99.90
29363;DHT22;16349;53.672;10.014;2023-05-29T00:33:29;11.50;99.90
29363;DHT22;16349;53.672;10.014;2023-05-29T00:35:58;11.40;99.90
29363;DHT22;16349;53.672;10.014;2023-05-29T00:38:25;11.30;99.90
29363;DHT22;16349;53.672;10.014;2023-05-29T00:40:52;11.30;99.90
29363;DHT22;16349;53.672;10.014;2023-05-29T00:43:18;11.20;99.90
29363;DHT22;16349;53.672;10.014;2023-05-29T00:45:46;11.10;99.90
29363;DHT22;16349;53.672;10.014;2023-05-29T00:48:13;11.10;99.90
29363;DHT22;16349;53.672;10.014;2023-05-29T00:50:40;11.10;99.90
29363;DHT22;16349;53.672;10.014;2023-05-29T00:53:09;11.00;99.90
29363;DHT22;16349;53.672;10.014;2023-05-29T00:55:37;11.00;99.90
29363;DHT22;16349;53.672;10.014;2023-05-29T00:58:05;10.90;99.90
29363;DHT22;16349;53.672;10.014;2023-05-29T01:00:32;10.80;99.90
29363;DHT22;16349;53.672;10.014;2023-05-29T01:03:03;10.80;99.90
29363;DHT22;16349;53.672;10.014;2023-05-29T01:05:33;10.80;99.90
29363;DHT22;16349;53.672;10.014;2023-05-29T01:08:00;10.70;99.90
29363;DHT22;16349;53.672;10.014;2023-05-29T01:10:29;10.70;99.90
29363;DHT22;16349;53.672;10.014;2023-05-29T01:13:02;10.60;99.90
29363;DHT22;16349;53.672;10.014;2023-05-29T01:15:37;10.60;99.90
29363;DHT22;16349;53.672;10.014;2023-05-29T01:18:19;10.60;99.90
29363;DHT22;16349;53.672;10.014;2023-05-29T01:20:54;10.60;99.90
29363;DHT22;16349;53.672;10.014;2023-05-29T01:23:51;10.60;99.90
29363;DHT22;16349;53.672;10.014;2023-05-29T01:26:37;10.50;99.90
29363;DHT22;16349;53.672;10.014;2023-05-29T01:29:10;10.50;99.90
29363;DHT22;16349;53.672;10.014;2023-05-29T01:31:39;10.50;99.90
29363;DHT22;16349;53.672;10.014;2023-05-29T01:34:08;10.50;99.90
29363;DHT22;16349;53.672;10.014;2023-05-29T01:36:36;10.40;99.90
29363;DHT22;16349;53.672;10.014;2023-05-29T01:39:03;10.40;99.90
29363;DHT22;16349;53.672;10.014;2023-05-29T01:41:33;10.40;99.90
29363;DHT22;16349;53.672;10.014;2023-05-29T01:44:02;10.40;99.90
29363;DHT22;16349;53.672;10.014;2023-05-29T01:46:30;10.40;99.90
29363;DHT22;16349;53.672;10.014;2023-05-29T01:48:57;10.30;99.90
29363;DHT22;16349;53.672;10.014;2023-05-29T01:51:24;10.40;99.90
29363;DHT22;16349;53.672;10.014;2023-05-29T01:53:51;10.30;99.90
29363;DHT22;16349;53.672;10.014;2023-05-29T01:56:19;10.20;99.90
29363;DHT22;16349;53.672;10.014;2023-05-29T01:58:49;10.20;99.90
29363;DHT22;16349;53.672;10.014;2023-05-29T02:01:16;10.20;99.90
29363;DHT22;16349;53.672;10.014;2023-05-29T02:03:44;10.10;99.90
29363;DHT22;16349;53.672;10.014;2023-05-29T02:06:11;10.00;99.90
29363;DHT22;16349;53.672;10.014;2023-05-29T02:08:38;10.00;99.90
29363;DHT22;16349;53.672;10.014;2023-05-29T02:11:05;9.90;99.90
29363;DHT22;16349;53.672;10.014;2023-05-29T02:13:32;9.90;99.90
29363;DHT22;16349;53.672;10.014;2023-05-29T02:16:00;9.80;99.90
29363;DHT22;16349;53.672;10.014;2023-05-29T02:18:27;9.70;99.90
29363;DHT22;16349;53.672;10.014;2023-05-29T02:20:54;9.70;99.90
29363;DHT22;16349;53.672;10.014;2023-05-29T02:23:21;9.80;99.90
29363;DHT22;16349;53.672;10.014;2023-05-29T02:25:50;9.80;99.90
29363;DHT22;16349;53.672;10.014;2023-05-29T02:28:17;9.70;99.90
29363;DHT22;16349;53.672;10.014;2023-05-29T02:30:44;9.60;99.90
29363;DHT22;16349;53.672;10.014;2023-05-29T02:33:12;9.60;99.90
29363;DHT22;16349;53.672;10.014;2023-05-29T02:35:39;9.60;99.90
29363;DHT22;16349;53.672;10.014;2023-05-29T02:38:06;9.60;99.90
29363;DHT22;16349;53.672;10.014;2023-05-29T02:40:33;9.50;99.90
29363;DHT22;16349;53.672;10.014;2023-05-29T02:43:00;9.50;99.90
29363;DHT22;16349;53.672;10.014;2023-05-29T02:45:27;9.50;99.90
29363;DHT22;16349;53.672;10.014;2023-05-29T02:47:54;9.50;99.90
29363;DHT22;16349;53.672;10.014;2023-05-29T02:50:22;9.50;99.90
29363;DHT22;16349;53.672;10.014;2023-05-29T02:52:49;9.50;99.90
29363;DHT22;16349;53.672;10.014;2023-05-29T02:55:18;11.00;99.90
29363;DHT22;16349;53.672;10.014;2023-05-29T02:57:45;9.50;99.90
29363;DHT22;16349;53.672;10.014;2023-05-29T03:00:14;9.50;99.90
29363;DHT22;16349;53.672;10.014;2023-05-29T03:02:42;9.50;99.90
29363;DHT22;16349;53.672;10.014;2023-05-29T03:05:10;9.40;99.90
29363;DHT22;16349;53.672;10.014;2023-05-29T03:07:39;9.40;99.90
29363;DHT22;16349;53.672;10.014;2023-05-29T03:10:06;9.40;99.90
29363;DHT22;16349;53.672;10.014;2023-05-29T03:12:33;9.30;99.90
29363;DHT22;16349;53.672;10.014;2023-05-29T03:15:00;9.30;99.90
29363;DHT22;16349;53.672;10.014;2023-05-29T03:17:28;9.20;99.90
29363;DHT22;16349;53.672;10.014;2023-05-29T03:19:56;9.20;99.90
29363;DHT22;16349;53.672;10.014;2023-05-29T03:22:23;9.20;99.90
29363;DHT22;16349;53.672;10.014;2023-05-29T03:24:52;9.20;99.90
29363;DHT22;16349;53.672;10.014;2023-05-29T03:27:19;9.10;99.90
29363;DHT22;16349;53.672;10.014;2023-05-29T03:29:55;9.00;99.90
29363;DHT22;16349;53.672;10.014;2023-05-29T03:32:24;9.00;99.90
29363;DHT22;16349;53.672;10.014;2023-05-29T03:34:50;8.90;99.90
29363;DHT22;16349;53.672;10.014;2023-05-29T03:37:17;8.90;99.90
29363;DHT22;16349;53.672;10.014;2023-05-29T03:39:46;8.90;99.90
29363;DHT22;16349;53.672;10.014;2023-05-29T03:42:14;9.00;99.90
29363;DHT22;16349;53.672;10.014;2023-05-29T03:44:42;9.00;99.90
29363;DHT22;16349;53.672;10.014;2023-05-29T03:47:10;9.00;99.90
29363;DHT22;16349;53.672;10.014;2023-05-29T03:49:37;9.00;99.90
29363;DHT22;16349;53.672;10.014;2023-05-29T03:52:05;9.00;99.90
29363;DHT22;16349;53.672;10.014;2023-05-29T03:54:32;9.10;99.90
29363;DHT22;16349;53.672;10.014;2023-05-29T03:57:02;9.00;99.90
29363;DHT22;16349;53.672;10.014;2023-05-29T03:59:29;9.10;99.90
29363;DHT22;16349;53.672;10.014;2023-05-29T04:01:57;9.10;99.90
29363;DHT22;16349;53.672;10.014;2023-05-29T04:04:24;9.10;99.90
29363;DHT22;16349;53.672;10.014;2023-05-29T04:06:53;9.10;99.90
29363;DHT22;16349;53.672;10.014;2023-05-29T04:09:20;9.10;99.90
29363;DHT22;16349;53.672;10.014;2023-05-29T04:11:47;9.10;99.90
29363;DHT22;16349;53.672;10.014;2023-05-29T04:14:17;9.20;99.90
29363;DHT22;16349;53.672;10.014;2023-05-29T04:16:46;9.20;99.90
29363;DHT22;16349;53.672;10.014;2023-05-29T04:19:12;9.20;99.90
29363;DHT22;16349;53.672;10.014;2023-05-29T04:21:40;9.20;99.90
29363;DHT22;16349;53.672;10.014;2023-05-29T04:24:06;9.20;99.90
29363;DHT22;16349;53.672;10.014;2023-05-29T04:26:34;9.30;99.90
29363;DHT22;16349;53.672;10.014;2023-05-29T04:29:01;9.30;99.90
29363;DHT22;16349;53.672;10.014;2023-05-29T04:31:31;9.30;99.90
29363;DHT22;16349;53.672;10.014;2023-05-29T04:34:00;9.30;99.90
29363;DHT22;16349;53.672;10.014;2023-05-29T04:36:30;9.20;99.90
29363;DHT22;16349;53.672;10.014;2023-05-29T04:39:06;9.30;99.90
29363;DHT22;16349;53.672;10.014;2023-05-29T04:41:34;9.20;99.90
29363;DHT22;16349;53.672;10.014;2023-05-29T04:44:02;9.20;99.90
29363;DHT22;16349;53.672;10.014;2023-05-29T04:46:39;9.20;99.90
29363;DHT22;16349;53.672;10.014;2023-05-29T04:49:07;9.20;99.90
29363;DHT22;16349;53.672;10.014;2023-05-29T04:51:33;9.20;99.90
29363;DHT22;16349;53.672;10.014;2023-05-29T04:54:02;9.30;99.90
29363;DHT22;16349;53.672;10.014;2023-05-29T04:56:29;9.20;99.90
29363;DHT22;16349;53.672;10.014;2023-05-29T04:58:56;9.20;99.90
29363;DHT22;16349;53.672;10.014;2023-05-29T05:01:45;9.30;99.90
29363;DHT22;16349;53.672;10.014;2023-05-29T05:04:14;9.30;99.90
29363;DHT22;16349;53.672;10.014;2023-05-29T05:06:42;9.30;99.90
29363;DHT22;16349;53.672;10.014;2023-05-29T05:09:10;9.30;99.90
29363;DHT22;16349;53.672;10.014;2023-05-29T05:11:38;9.30;99.90
29363;DHT22;16349;53.672;10.014;2023-05-29T05:14:06;9.40;99.90
29363;DHT22;16349;53.672;10.014;2023-05-29T05:16:33;9.40;99.90
29363;DHT22;16349;53.672;10.014;2023-05-29T05:19:02;9.50;99.90
29363;DHT22;16349;53.672;10.014;2023-05-29T05:21:33;9.50;99.90
29363;DHT22;16349;53.672;10.014;2023-05-29T05:24:02;9.50;99.90
29363;DHT22;16349;53.672;10.014;2023-05-29T05:26:31;9.60;99.90
29363;DHT22;16349;53.672;10.014;2023-05-29T05:28:58;9.60;99.90
29363;DHT22;16349;53.672;10.014;2023-05-29T05:31:28;9.60;99.90
29363;DHT22;16349;53.672;10.014;2023-05-29T05:33:55;9.70;99.90
29363;DHT22;16349;53.672;10.014;2023-05-29T05:36:23;9.70;99.90
29363;DHT22;16349;53.672;10.014;2023-05-29T05:38:57;9.70;99.90
29363;DHT22;16349;53.672;10.014;2023-05-29T05:41:24;9.80;99.90
29363;DHT22;16349;53.672;10.014;2023-05-29T05:43:53;9.80;99.90
29363;DHT22;16349;53.672;10.014;2023-05-29T05:46:53;9.90;99.90
29363;DHT22;16349;53.672;10.014;2023-05-29T05:49:20;9.90;99.90
29363;DHT22;16349;53.672;10.014;2023-05-29T05:51:46;10.00;99.90
29363;DHT22;16349;53.672;10.014;2023-05-29T05:54:14;10.00;99.90
29363;DHT22;16349;53.672;10.014;2023-05-29T05:56:41;10.00;99.90
29363;DHT22;16349;53.672;10.014;2023-05-29T05:59:13;10.00;99.90
29363;DHT22;16349;53.672;10.014;2023-05-29T06:01:41;10.00;99.90
29363;DHT22;16349;53.672;10.014;2023-05-29T06:04:08;10.00;99.90
29363;DHT22;16349;53.672;10.014;2023-05-29T06:06:36;10.10;99.90
29363;DHT22;16349;53.672;10.014;2023-05-29T06:09:03;10.10;99.90
29363;DHT22;16349;53.672;10.014;2023-05-29T06:11:32;10.20;99.90
29363;DHT22;16349;53.672;10.014;2023-05-29T06:14:00;10.20;99.90
29363;DHT22;16349;53.672;10.014;2023-05-29T06:16:28;10.20;99.90
29363;DHT22;16349;53.672;10.014;2023-05-29T06:18:56;10.30;99.90
29363;DHT22;16349;53.672;10.014;2023-05-29T06:21:24;10.30;99.90
29363;DHT22;16349;53.672;10.014;2023-05-29T06:23:52;10.40;99.90
29363;DHT22;16349;53.672;10.014;2023-05-29T06:26:20;10.50;99.90
29363;DHT22;16349;53.672;10.014;2023-05-29T06:28:50;10.50;99.90
29363;DHT22;16349;53.672;10.014;2023-05-29T06:31:19;10.60;99.90
29363;DHT22;16349;53.672;10.014;2023-05-29T06:33:48;10.70;99.90
29363;DHT22;16349;53.672;10.014;2023-05-29T06:36:16;10.70;99.90
29363;DHT22;16349;53.672;10.014;2023-05-29T06:38:46;10.70;99.90
29363;DHT22;16349;53.672;10.014;2023-05-29T06:41:14;10.80;99.90
29363;DHT22;16349;53.672;10.014;2023-05-29T06:43:41;10.90;99.90
29363;DHT22;16349;53.672;10.014;2023-05-29T06:46:10;11.00;99.90
29363;DHT22;16349;53.672;10.014;2023-05-29T06:48:37;11.00;99.90
29363;DHT22;16349;53.672;10.014;2023-05-29T06:51:05;11.00;99.90
29363;DHT22;16349;53.672;10.014;2023-05-29T06:53:40;11.10;99.90
29363;DHT22;16349;53.672;10.014;2023-05-29T06:56:09;11.10;99.90
29363;DHT22;16349;53.672;10.014;2023-05-29T06:58:36;11.20;99.90
29363;DHT22;16349;53.672;10.014;2023-05-29T07:01:03;11.20;99.90
29363;DHT22;16349;53.672;10.014;2023-05-29T07:03:34;11.30;99.90
29363;DHT22;16349;53.672;10.014;2023-05-29T07:06:04;11.40;99.90
29363;DHT22;16349;53.672;10.014;2023-05-29T07:08:32;11.40;99.90
29363;DHT22;16349;53.672;10.014;2023-05-29T07:10:59;11.40;99.90
29363;DHT22;16349;53.672;10.014;2023-05-29T07:13:26;11.50;99.90
29363;DHT22;16349;53.672;10.014;2023-05-29T07:15:54;11.50;99.90
29363;DHT22;16349;53.672;10.014;2023-05-29T07:18:28;11.50;99.90
29363;DHT22;16349;53.672;10.014;2023-05-29T07:20:59;11.50;99.90
29363;DHT22;16349;53.672;10.014;2023-05-29T07:23:49;11.50;99.90
29363;DHT22;16349;53.672;10.014;2023-05-29T07:26:37;11.50;99.90
29363;DHT22;16349;53.672;10.014;2023-05-29T07:29:04;11.60;99.90
29363;DHT22;16349;53.672;10.014;2023-05-29T07:31:32;11.60;99.90
29363;DHT22;16349;53.672;10.014;2023-05-29T07:33:59;11.60;99.90
29363;DHT22;16349;53.672;10.014;2023-05-29T07:36:30;11.70;99.90
29363;DHT22;16349;53.672;10.014;2023-05-29T07:39:01;11.80;99.90
29363;DHT22;16349;53.672;10.014;2023-05-29T07:41:28;11.90;99.90
29363;DHT22;16349;53.672;10.014;2023-05-29T07:43:55;12.00;99.90
29363;DHT22;16349;53.672;10.014;2023-05-29T07:46:23;12.10;99.90
29363;DHT22;16349;53.672;10.014;2023-05-29T07:48:55;12.10;99.90
29363;DHT22;16349;53.672;10.014;2023-05-29T07:51:23;12.20;99.90
29363;DHT22;16349;53.672;10.014;2023-05-29T07:53:52;12.20;99.90
29363;DHT22;16349;53.672;10.014;2023-05-29T07:56:19;12.30;99.90
29363;DHT22;16349;53.672;10.014;2023-05-29T07:58:47;12.40;99.90
29363;DHT22;16349;53.672;10.014;2023-05-29T08:01:14;12.30;99.90
29363;DHT22;16349;53.672;10.014;2023-05-29T08:03:41;12.30;99.90
29363;DHT22;16349;53.672;10.014;2023-05-29T08:06:23;12.40;99.90
29363;DHT22;16349;53.672;10.014;2023-05-29T08:08:52;12.60;99.90
29363;DHT22;16349;53.672;10.014;2023-05-29T08:11:21;12.70;99.90
29363;DHT22;16349;53.672;10.014;2023-05-29T08:13:49;12.70;99.90
29363;DHT22;16349;53.672;10.014;2023-05-29T08:16:16;12.80;99.90
29363;DHT22;16349;53.672;10.014;2023-05-29T08:18:43;12.90;99.90
29363;DHT22;16349;53.672;10.014;2023-05-29T08:21:11;13.10;99.90
29363;DHT22;16349;53.672;10.014;2023-05-29T08:23:38;13.10;99.90
29363;DHT22;16349;53.672;10.014;2023-05-29T08:26:06;13.20;99.90
29363;DHT22;16349;53.672;10.014;2023-05-29T08:28:33;13.30;99.90
29363;DHT22;16349;53.672;10.014;2023-05-29T08:31:00;13.40;99.90
29363;DHT22;16349;53.672;10.014;2023-05-29T08:33:27;13.40;99.90
29363;DHT22;16349;53.672;10.014;2023-05-29T08:35:57;13.50;99.90
29363;DHT22;16349;53.672;10.014;2023-05-29T08:38:23;13.70;99.90
29363;DHT22;16349;53.672;10.014;2023-05-29T08:40:54;13.80;99.90
29363;DHT22;16349;53.672;10.014;2023-05-29T08:43:24;13.90;99.90
29363;DHT22;16349;53.672;10.014;2023-05-29T08:45:54;14.00;99.90
29363;DHT22;16349;53.672;10.014;2023-05-29T08:48:23;14.10;99.90
29363;DHT22;16349;53.672;10.014;2023-05-29T08:50:52;14.20;99.90
29363;DHT22;16349;53.672;10.014;2023-05-29T08:53:21;14.20;99.90
29363;DHT22;16349;53.672;10.014;2023-05-29T08:55:50;14.40;99.90
29363;DHT22;16349;53.672;10.014;2023-05-29T08:58:19;14.50;99.90
29363;DHT22;16349;53.672;10.014;2023-05-29T09:00:49;14.60;99.90
29363;DHT22;16349;53.672;10.014;2023-05-29T09:03:17;14.60;99.90
29363;DHT22;16349;53.672;10.014;2023-05-29T09:06:08;14.70;99.90
29363;DHT22;16349;53.672;10.014;2023-05-29T09:08:35;14.60;99.70
29363;DHT22;16349;53.672;10.014;2023-05-29T09:11:03;14.70;99.60
29363;DHT22;16349;53.672;10.014;2023-05-29T09:13:29;14.80;99.30
29363;DHT22;16349;53.672;10.014;2023-05-29T09:15:59;14.80;99.10
29363;DHT22;16349;53.672;10.014;2023-05-29T09:18:29;14.80;98.80
29363;DHT22;16349;53.672;10.014;2023-05-29T09:20:56;14.90;98.90
29363;DHT22;16349;53.672;10.014;2023-05-29T09:23:25;15.00;98.10
29363;DHT22;16349;53.672;10.014;2023-05-29T09:25:53;15.10;96.80
29363;DHT22;16349;53.672;10.014;2023-05-29T09:28:21;15.10;96.40
29363;DHT22;16349;53.672;10.014;2023-05-29T09:30:49;15.20;99.90
29363;DHT22;16349;53.672;10.014;2023-05-29T09:33:17;15.20;97.10
29363;DHT22;16349;53.672;10.014;2023-05-29T09:35:46;15.10;97.10
29363;DHT22;16349;53.672;10.014;2023-05-29T09:38:15;15.30;97.50
29363;DHT22;16349;53.672;10.014;2023-05-29T09:40:42;15.40;96.90
29363;DHT22;16349;53.672;10.014;2023-05-29T09:43:12;15.40;97.00
29363;DHT22;16349;53.672;10.014;2023-05-29T09:45:41;15.60;96.60
29363;DHT22;16349;53.672;10.014;2023-05-29T09:48:11;15.60;96.80
29363;DHT22;16349;53.672;10.014;2023-05-29T09:50:40;15.70;96.30
29363;DHT22;16349;53.672;10.014;2023-05-29T09:53:16;15.70;95.60
29363;DHT22;16349;53.672;10.014;2023-05-29T09:55:48;15.80;94.60
29363;DHT22;16349;53.672;10.014;2023-05-29T09:58:16;15.80;94.50
29363;DHT22;16349;53.672;10.014;2023-05-29T10:00:44;15.80;94.30
29363;DHT22;16349;53.672;10.014;2023-05-29T10:03:11;15.90;93.90
29363;DHT22;16349;53.672;10.014;2023-05-29T10:05:40;16.00;93.90
29363;DHT22;16349;53.672;10.014;2023-05-29T10:08:09;16.20;93.60
29363;DHT22;16349;53.672;10.014;2023-05-29T10:10:40;16.20;92.60
29363;DHT22;16349;53.672;10.014;2023-05-29T10:13:11;16.10;92.60
29363;DHT22;16349;53.672;10.014;2023-05-29T10:15:41;16.10;93.00
29363;DHT22;16349;53.672;10.014;2023-05-29T10:18:12;16.20;92.70
29363;DHT22;16349;53.672;10.014;2023-05-29T10:20:43;16.20;92.00
29363;DHT22;16349;53.672;10.014;2023-05-29T10:23:11;16.30;91.70
29363;DHT22;16349;53.672;10.014;2023-05-29T10:25:39;16.20;91.40
29363;DHT22;16349;53.672;10.014;2023-05-29T10:28:08;16.20;91.60
29363;DHT22;16349;53.672;10.014;2023-05-29T10:30:38;16.30;91.40
29363;DHT22;16349;53.672;10.014;2023-05-29T10:33:25;16.40;91.40
29363;DHT22;16349;53.672;10.014;2023-05-29T10:36:00;16.50;91.10
29363;DHT22;16349;53.672;10.014;2023-05-29T10:38:27;16.60;91.00
29363;DHT22;16349;53.672;10.014;2023-05-29T10:40:54;16.70;90.40
29363;DHT22;16349;53.672;10.014;2023-05-29T10:43:33;16.70;90.30
29363;DHT22;16349;53.672;10.014;2023-05-29T10:46:02;16.70;90.00
29363;DHT22;16349;53.672;10.014;2023-05-29T10:48:40;16.70;89.50
29363;DHT22;16349;53.672;10.014;2023-05-29T10:51:24;16.70;90.10
29363;DHT22;16349;53.672;10.014;2023-05-29T10:53:51;16.80;90.00
29363;DHT22;16349;53.672;10.014;2023-05-29T10:56:22;16.90;90.10
29363;DHT22;16349;53.672;10.014;2023-05-29T10:58:52;16.90;88.90
29363;DHT22;16349;53.672;10.014;2023-05-29T11:01:21;17.00;85.90
29363;DHT22;16349;53.672;10.014;2023-05-29T11:03:49;17.00;87.40
29363;DHT22;16349;53.672;10.014;2023-05-29T11:06:20;17.10;86.50
29363;DHT22;16349;53.672;10.014;2023-05-29T11:08:54;17.20;99.90
29363;DHT22;16349;53.672;10.014;2023-05-29T11:11:31;17.30;85.30
29363;DHT22;16349;53.672;10.014;2023-05-29T11:14:03;17.40;99.90
29363;DHT22;16349;53.672;10.014;2023-05-29T11:16:37;17.50;83.40
29363;DHT22;16349;53.672;10.014;2023-05-29T11:19:05;17.50;83.80
29363;DHT22;16349;53.672;10.014;2023-05-29T11:21:44;17.70;82.10
29363;DHT22;16349;53.672;10.014;2023-05-29T11:24:20;17.70;80.60
29363;DHT22;16349;53.672;10.014;2023-05-29T11:26:48;17.70;81.10
29363;DHT22;16349;53.672;10.014;2023-05-29T11:29:16;17.80;82.10
29363;DHT22;16349;53.672;10.014;2023-05-29T11:31:43;17.80;81.90
29363;DHT22;16349;53.672;10.014;2023-05-29T11:34:14;17.80;81.20
29363;DHT22;16349;53.672;10.014;2023-05-29T11:36:44;17.80;81.00
29363;DHT22;16349;53.672;10.014;2023-05-29T11:39:11;17.90;81.60
29363;DHT22;16349;53.672;10.014;2023-05-29T11:41:38;18.00;80.20
29363;DHT22;16349;53.672;10.014;2023-05-29T11:44:05;18.10;78.90
29363;DHT22;16349;53.672;10.014;2023-05-29T11:46:32;18.00;78.00
29363;DHT22;16349;53.672;10.014;2023-05-29T11:49:00;17.90;79.10
29363;DHT22;16349;53.672;10.014;2023-05-29T11:51:28;18.00;79.80
29363;DHT22;16349;53.672;10.014;2023-05-29T11:53:56;18.20;78.30
29363;DHT22;16349;53.672;10.014;2023-05-29T11:56:24;18.20;77.50
29363;DHT22;16349;53.672;10.014;2023-05-29T11:58:52;18.30;76.60
29363;DHT22;16349;53.672;10.014;2023-05-29T12:01:22;18.30;77.10
29363;DHT22;16349;53.672;10.014;2023-05-29T12:03:51;18.40;76.40
29363;DHT22;16349;53.672;10.014;2023-05-29T12:09:06;18.70;75.30
29363;DHT22;16349;53.672;10.014;2023-05-29T12:11:34;18.70;74.80
29363;DHT22;16349;53.672;10.014;2023-05-29T12:14:01;18.70;75.70
29363;DHT22;16349;53.672;10.014;2023-05-29T12:16:30;18.60;75.00
29363;DHT22;16349;53.672;10.014;2023-05-29T12:18:59;18.70;74.50
29363;DHT22;16349;53.672;10.014;2023-05-29T12:21:27;18.80;73.10
29363;DHT22;16349;53.672;10.014;2023-05-29T12:23:54;18.80;73.50
29363;DHT22;16349;53.672;10.014;2023-05-29T12:26:24;18.90;73.10
29363;DHT22;16349;53.672;10.014;2023-05-29T12:28:52;19.00;72.30
29363;DHT22;16349;53.672;10.014;2023-05-29T12:31:28;19.10;71.00
29363;DHT22;16349;53.672;10.014;2023-05-29T12:34:00;19.20;68.60
29363;DHT22;16349;53.672;10.014;2023-05-29T12:36:27;19.10;69.80
29363;DHT22;16349;53.672;10.014;2023-05-29T12:38:54;19.30;69.50
29363;DHT22;16349;53.672;10.014;2023-05-29T12:41:28;19.30;66.30
29363;DHT22;16349;53.672;10.014;2023-05-29T12:43:56;19.40;64.20
29363;DHT22;16349;53.672;10.014;2023-05-29T12:46:24;19.40;66.00
29363;DHT22;16349;53.672;10.014;2023-05-29T12:48:53;19.60;65.40
29363;DHT22;16349;53.672;10.014;2023-05-29T12:51:24;19.90;64.90
29363;DHT22;16349;53.672;10.014;2023-05-29T12:53:51;20.10;64.50
29363;DHT22;16349;53.672;10.014;2023-05-29T12:56:21;20.40;66.20
29363;DHT22;16349;53.672;10.014;2023-05-29T12:58:51;20.90;64.10
29363;DHT22;16349;53.672;10.014;2023-05-29T13:01:18;21.40;74.00
29363;DHT22;16349;53.672;10.014;2023-05-29T13:03:46;21.80;61.90
29363;DHT22;16349;53.672;10.014;2023-05-29T13:06:13;22.10;59.80
29363;DHT22;16349;53.672;10.014;2023-05-29T13:08:40;22.60;58.00
29363;DHT22;16349;53.672;10.014;2023-05-29T13:11:07;22.10;55.10
29363;DHT22;16349;53.672;10.014;2023-05-29T13:13:34;22.40;89.20
29363;DHT22;16349;53.672;10.014;2023-05-29T13:20:57;22.80;57.20
29363;DHT22;16349;53.672;10.014;2023-05-29T13:23:24;23.00;57.10
29363;DHT22;16349;53.672;10.014;2023-05-29T13:25:51;23.00;55.00
29363;DHT22;16349;53.672;10.014;2023-05-29T13:28:18;22.90;56.60
29363;DHT22;16349;53.672;10.014;2023-05-29T13:30:45;23.10;55.80
29363;DHT22;16349;53.672;10.014;2023-05-29T13:33:13;23.30;54.90
29363;DHT22;16349;53.672;10.014;2023-05-29T13:35:40;23.40;90.50
29363;DHT22;16349;53.672;10.014;2023-05-29T13:38:07;23.90;55.50
29363;DHT22;16349;53.672;10.014;2023-05-29T13:40:34;23.90;54.20
29363;DHT22;16349;53.672;10.014;2023-05-29T13:43:01;24.00;53.90
29363;DHT22;16349;53.672;10.014;2023-05-29T13:45:27;23.90;53.60
29363;DHT22;16349;53.672;10.014;2023-05-29T13:47:54;24.10;53.70
29363;DHT22;16349;53.672;10.014;2023-05-29T13:50:23;24.50;52.80
29363;DHT22;16349;53.672;10.014;2023-05-29T13:52:51;24.80;52.80
29363;DHT22;16349;53.672;10.014;2023-05-29T13:55:19;24.60;50.30
29363;DHT22;16349;53.672;10.014;2023-05-29T13:57:45;24.40;50.30
29363;DHT22;16349;53.672;10.014;2023-05-29T14:00:13;24.30;49.60
29363;DHT22;16349;53.672;10.014;2023-05-29T14:02:40;24.30;50.80
29363;DHT22;16349;53.672;10.014;2023-05-29T14:05:07;24.80;51.70
29363;DHT22;16349;53.672;10.014;2023-05-29T14:07:38;25.30;51.00
29363;DHT22;16349;53.672;10.014;2023-05-29T14:10:06;25.60;50.20
29363;DHT22;16349;53.672;10.014;2023-05-29T14:12:33;25.70;50.10
29363;DHT22;16349;53.672;10.014;2023-05-29T14:15:00;25.70;48.80
29363;DHT22;16349;53.672;10.014;2023-05-29T14:17:27;25.40;48.60
29363;DHT22;16349;53.672;10.014;2023-05-29T14:19:54;24.70;48.00
29363;DHT22;16349;53.672;10.014;2023-05-29T14:22:21;24.60;48.60
29363;DHT22;16349;53.672;10.014;2023-05-29T14:24:49;25.00;48.70
29363;DHT22;16349;53.672;10.014;2023-05-29T14:27:16;25.00;48.50
29363;DHT22;16349;53.672;10.014;2023-05-29T14:29:43;25.20;48.10
29363;DHT22;16349;53.672;10.014;2023-05-29T14:32:11;24.90;48.50
29363;DHT22;16349;53.672;10.014;2023-05-29T14:34:39;24.90;48.50
29363;DHT22;16349;53.672;10.014;2023-05-29T14:37:05;25.20;48.10
29363;DHT22;16349;53.672;10.014;2023-05-29T14:39:32;25.30;47.50
29363;DHT22;16349;53.672;10.014;2023-05-29T14:42:01;25.40;47.70
29363;DHT22;16349;53.672;10.014;2023-05-29T14:44:28;25.30;47.70
29363;DHT22;16349;53.672;10.014;2023-05-29T14:46:56;25.30;48.20
29363;DHT22;16349;53.672;10.014;2023-05-29T14:49:23;25.30;47.30
29363;DHT22;16349;53.672;10.014;2023-05-29T14:51:51;25.40;46.90
29363;DHT22;16349;53.672;10.014;2023-05-29T14:54:20;25.30;47.10
29363;DHT22;16349;53.672;10.014;2023-05-29T14:56:47;25.30;49.10
29363;DHT22;16349;53.672;10.014;2023-05-29T14:59:15;25.30;47.50
29363;DHT22;16349;53.672;10.014;2023-05-29T15:01:42;24.90;46.90
29363;DHT22;16349;53.672;10.014;2023-05-29T15:04:09;25.10;47.10
29363;DHT22;16349;53.672;10.014;2023-05-29T15:06:37;25.30;47.40
29363;DHT22;16349;53.672;10.014;2023-05-29T15:09:03;25.40;47.90
29363;DHT22;16349;53.672;10.014;2023-05-29T15:11:31;25.60;47.10
29363;DHT22;16349;53.672;10.014;2023-05-29T15:13:57;25.60;47.50
29363;DHT22;16349;53.672;10.014;2023-05-29T15:16:26;25.90;47.00
29363;DHT22;16349;53.672;10.014;2023-05-29T15:18:53;26.00;48.00
29363;DHT22;16349;53.672;10.014;2023-05-29T15:21:20;25.80;47.30
29363;DHT22;16349;53.672;10.014;2023-05-29T15:23:47;25.70;47.00
29363;DHT22;16349;53.672;10.014;2023-05-29T15:26:14;25.80;47.10
29363;DHT22;16349;53.672;10.014;2023-05-29T15:28:41;25.90;47.30
29363;DHT22;16349;53.672;10.014;2023-05-29T15:31:07;25.90;47.40
29363;DHT22;16349;53.672;10.014;2023-05-29T15:33:35;26.10;47.30
29363;DHT22;16349;53.672;10.014;2023-05-29T15:36:03;25.90;47.60
29363;DHT22;16349;53.672;10.014;2023-05-29T15:38:30;25.90;49.70